Coober Pedy, Australia
Current Conditions -  °F | °C
As of 10:00 PM on Saturday 25 Oct 2014 (Local Time) from YCBP Reporting Station
Clear Clear  
Wind Chill: 86°   Ceiling: Unl
Heat Index: 86°   Visibility: NA
Dew Point: 36°   Wind: 8mph
Humidity: 17%   Direction: 130°SE
Pressure: 29.94"   Gusts: NA
Location:  29.01°S, 134.75°E
Report Text: YCBP 251200Z AUTO 13007KT //// // NCD 30/02 Q1014
Loading
Personal Weather Stations






























Interactive Weather Map
Tropical Storm Tracking
New forecast layout! Learn more

10-Day Weather Forecast

Advertisements
Track Severe Weather on mobile